createdAt,value
2023-04-29T00:02:18.735Z,101320.78
2023-04-29T00:04:46.595Z,101320.84
2023-04-29T00:07:15.962Z,101318.28
2023-04-29T00:09:43.898Z,101328.84
2023-04-29T00:12:12.099Z,101336.72
2023-04-29T00:14:39.773Z,101326.25
2023-04-29T00:17:08.142Z,101335.88
2023-04-29T00:19:35.885Z,101328.00
2023-04-29T00:22:03.648Z,101338.53
2023-04-29T00:24:31.188Z,101338.56
2023-04-29T00:26:59.538Z,101335.97
2023-04-29T00:29:27.781Z,101338.63
2023-04-29T00:31:55.717Z,101346.53
2023-04-29T00:34:23.972Z,101350.94
2023-04-29T00:36:51.791Z,101351.91
2023-04-29T00:39:19.503Z,101360.69
2023-04-29T00:41:47.155Z,101356.31
2023-04-29T00:44:14.751Z,101356.31
2023-04-29T00:46:42.832Z,101353.69
2023-04-29T00:49:13.540Z,101351.94
2023-04-29T00:51:44.318Z,101358.06
2023-04-29T00:54:13.864Z,101351.97
2023-04-29T00:56:45.919Z,101356.34
2023-04-29T00:59:15.472Z,101363.38
2023-04-29T01:01:44.790Z,101363.41
2023-04-29T01:04:16.423Z,101366.91
2023-04-29T01:07:16.083Z,101373.06
2023-04-29T01:10:04.491Z,101370.47
2023-04-29T01:13:07.020Z,101374.00
2023-04-29T01:15:59.261Z,101377.50
2023-04-29T01:18:54.426Z,101375.81
2023-04-29T01:21:28.224Z,101379.34
2023-04-29T01:23:56.465Z,101382.81
2023-04-29T01:26:32.533Z,101383.66
2023-04-29T01:29:48.783Z,101389.78
2023-04-29T01:32:37.347Z,101389.84
2023-04-29T01:35:31.171Z,101393.34
2023-04-29T01:38:18.904Z,101394.19
2023-04-29T01:41:27.515Z,101393.34
2023-04-29T01:44:04.690Z,101396.91
2023-04-29T01:46:32.695Z,101398.66
2023-04-29T01:49:00.486Z,101404.78
2023-04-29T01:51:28.502Z,101406.56
2023-04-29T01:53:57.313Z,101400.44
2023-04-29T01:56:25.133Z,101406.63
2023-04-29T01:59:25.173Z,101403.09
2023-04-29T02:02:15.338Z,101401.38
2023-04-29T02:04:52.933Z,101404.00
2023-04-29T02:07:21.000Z,101404.88
2023-04-29T02:09:49.290Z,101405.72
2023-04-29T02:12:20.948Z,101410.94
2023-04-29T02:14:53.374Z,101410.94
2023-04-29T02:17:21.756Z,101421.47
2023-04-29T02:19:49.503Z,101414.44
2023-04-29T02:22:18.432Z,101422.38
2023-04-29T02:24:46.852Z,101425.00
2023-04-29T02:27:19.082Z,101421.53
2023-04-29T02:29:46.671Z,101421.53
2023-04-29T02:32:16.067Z,101421.53
2023-04-29T02:34:47.739Z,101432.03
2023-04-29T02:37:16.302Z,101435.63
2023-04-29T02:39:43.866Z,101437.38
2023-04-29T02:42:14.168Z,101444.31
2023-04-29T02:44:42.562Z,101448.66
2023-04-29T02:47:11.281Z,101444.31
2023-04-29T02:49:40.428Z,101453.91
2023-04-29T02:52:08.118Z,101448.66
2023-04-29T02:54:36.560Z,101454.81
2023-04-29T02:57:05.329Z,101461.81
2023-04-29T02:59:33.100Z,101457.44
2023-04-29T03:02:02.127Z,101459.22
2023-04-29T03:04:30.110Z,101455.75
2023-04-29T03:06:57.995Z,101456.63
2023-04-29T03:09:27.804Z,101462.78
2023-04-29T03:11:56.227Z,101467.13
2023-04-29T03:14:23.864Z,101468.91
2023-04-29T03:16:52.167Z,101475.91
2023-04-29T03:19:19.959Z,101468.91
2023-04-29T03:21:52.202Z,101469.81
2023-04-29T03:24:22.086Z,101471.59
2023-04-29T03:26:49.753Z,101475.09
2023-04-29T03:29:20.873Z,101480.38
2023-04-29T03:31:48.515Z,101468.13
2023-04-29T03:34:16.491Z,101477.78
2023-04-29T03:36:51.484Z,101476.00
2023-04-29T03:39:19.508Z,101477.78
2023-04-29T03:41:48.039Z,101481.31
2023-04-29T03:44:17.344Z,101484.81
2023-04-29T03:46:45.174Z,101483.09
2023-04-29T03:49:13.689Z,101483.09
2023-04-29T03:51:45.524Z,101490.97
2023-04-29T03:54:16.695Z,101498.81
2023-04-29T03:56:44.630Z,101500.56
2023-04-29T03:59:13.389Z,101500.56
2023-04-29T04:01:42.359Z,101504.03
2023-04-29T04:04:10.463Z,101506.66
2023-04-29T04:06:44.264Z,101509.28
2023-04-29T04:09:13.741Z,101511.03
2023-04-29T04:11:42.139Z,101497.00
2023-04-29T04:14:10.382Z,101508.41
2023-04-29T04:16:38.804Z,101519.75
2023-04-29T04:19:06.756Z,101523.22
2023-04-29T04:21:38.331Z,101518.91
2023-04-29T04:24:10.401Z,101525.06
2023-04-29T04:26:39.006Z,101529.41
2023-04-29T04:29:15.716Z,101539.91
2023-04-29T04:31:53.749Z,101529.41
2023-04-29T04:34:22.445Z,101531.97
2023-04-29T04:36:52.690Z,101531.09
2023-04-29T04:39:20.503Z,101537.22
2023-04-29T04:41:49.266Z,101539.00
2023-04-29T04:44:17.064Z,101545.97
2023-04-29T04:47:01.305Z,101548.59
2023-04-29T04:49:53.040Z,101548.59
2023-04-29T04:52:22.441Z,101559.94
2023-04-29T04:55:00.597Z,101562.56
2023-04-29T04:57:31.026Z,101562.56
2023-04-29T05:00:02.365Z,101569.56
2023-04-29T05:02:30.346Z,101570.41
2023-04-29T05:04:58.421Z,101570.41
2023-04-29T05:07:29.014Z,101567.81
2023-04-29T05:10:02.690Z,101580.06
2023-04-29T05:12:32.651Z,101587.09
2023-04-29T05:15:02.555Z,101592.28
2023-04-29T05:17:32.109Z,101590.56
2023-04-29T05:20:00.321Z,101606.28
2023-04-29T05:22:27.939Z,101608.91
2023-04-29T05:25:02.467Z,101609.78
2023-04-29T05:27:31.676Z,101608.03
2023-04-29T05:30:00.024Z,101601.91
2023-04-29T05:32:27.779Z,101601.88
2023-04-29T05:34:55.466Z,101610.59
2023-04-29T05:37:24.295Z,101608.88
2023-04-29T05:40:04.231Z,101618.47
2023-04-29T05:42:34.128Z,101612.34
2023-04-29T05:45:02.601Z,101616.69
2023-04-29T05:47:33.971Z,101618.47
2023-04-29T05:50:02.204Z,101627.19
2023-04-29T05:52:32.125Z,101621.94
2023-04-29T05:54:59.988Z,101634.16
2023-04-29T05:57:27.906Z,101634.16
2023-04-29T05:59:55.852Z,101642.88
2023-04-29T06:02:24.746Z,101642.88
2023-04-29T06:04:52.855Z,101647.22
2023-04-29T06:07:45.586Z,101649.84
2023-04-29T06:10:33.416Z,101655.09
2023-04-29T06:13:01.167Z,101655.91
2023-04-29T06:15:29.096Z,101662.84
2023-04-29T06:17:57.502Z,101664.56
2023-04-29T06:20:25.183Z,101663.63
2023-04-29T06:22:54.233Z,101671.44
2023-04-29T06:25:22.039Z,101663.53
2023-04-29T06:27:52.604Z,101681.88
2023-04-29T06:30:23.763Z,101671.31
2023-04-29T06:32:51.961Z,101683.53
2023-04-29T06:35:20.317Z,101684.34
2023-04-29T06:38:14.114Z,101686.06
2023-04-29T06:41:04.314Z,101691.25
2023-04-29T06:44:02.381Z,101700.81
2023-04-29T06:47:08.375Z,101707.78
2023-04-29T06:49:55.009Z,101707.72
2023-04-29T06:52:30.708Z,101705.06
2023-04-29T06:55:04.276Z,101707.66
2023-04-29T06:57:38.929Z,101711.09
2023-04-29T07:00:21.125Z,101715.41
2023-04-29T07:02:48.919Z,101719.72
2023-04-29T07:05:16.880Z,101719.63
2023-04-29T07:07:44.627Z,101717.78
2023-04-29T07:10:12.269Z,101739.59
2023-04-29T07:12:39.944Z,101732.47
2023-04-29T07:15:08.297Z,101732.44
2023-04-29T07:17:36.126Z,101750.81
2023-04-29T07:20:05.534Z,101743.75
2023-04-29T07:22:33.329Z,101745.53
2023-04-29T07:25:01.434Z,101749.09
2023-04-29T07:27:29.604Z,101753.47
2023-04-29T07:30:03.645Z,101748.22
2023-04-29T07:32:31.891Z,101751.66
2023-04-29T07:35:03.964Z,101762.13
2023-04-29T07:37:32.843Z,101766.41
2023-04-29T07:40:00.880Z,101761.97
2023-04-29T07:42:28.955Z,101765.38
2023-04-29T07:44:57.503Z,101775.88
2023-04-29T07:47:25.384Z,101776.66
2023-04-29T07:49:53.062Z,101775.69
2023-04-29T07:52:20.916Z,101786.16
2023-04-29T07:54:50.497Z,101788.78
2023-04-29T07:57:18.245Z,101786.16
2023-04-29T07:59:46.017Z,101787.00
2023-04-29T08:02:14.149Z,101785.22
2023-04-29T08:04:42.563Z,101781.72
2023-04-29T08:07:12.784Z,101793.00
2023-04-29T08:09:40.422Z,101795.56
2023-04-29T08:12:10.843Z,101782.25
2023-04-29T08:14:41.284Z,101791.78
2023-04-29T08:17:09.104Z,101789.00
2023-04-29T08:19:37.775Z,101791.47
2023-04-29T08:22:05.684Z,101799.22
2023-04-29T08:24:35.108Z,101806.97
2023-04-29T08:27:03.532Z,101805.97
2023-04-29T08:29:34.984Z,101806.66
2023-04-29T08:32:02.926Z,101805.63
2023-04-29T08:34:32.486Z,101803.63
2023-04-29T08:37:00.138Z,101802.69
2023-04-29T08:39:30.478Z,101803.38
2023-04-29T08:41:59.269Z,101808.53
2023-04-29T08:44:27.884Z,101811.03
2023-04-29T08:46:56.553Z,101816.19
2023-04-29T08:49:24.352Z,101823.94
2023-04-29T08:51:52.005Z,101820.38
2023-04-29T08:54:19.762Z,101822.88
2023-04-29T08:56:47.854Z,101828.00
2023-04-29T08:59:17.553Z,101823.47
2023-04-29T09:01:52.967Z,101825.94
2023-04-29T09:04:49.738Z,101828.38
2023-04-29T09:07:18.104Z,101831.69
2023-04-29T09:09:47.505Z,101835.00
2023-04-29T09:12:15.523Z,101839.16
2023-04-29T09:14:43.347Z,101836.31
2023-04-29T09:17:11.587Z,101842.38
2023-04-29T09:19:39.189Z,101840.53
2023-04-29T09:22:12.807Z,101851.94
2023-04-29T09:24:41.118Z,101844.00
2023-04-29T09:27:09.249Z,101843.88
2023-04-29T09:29:38.570Z,101838.28
2023-04-29T09:32:22.714Z,101848.41
2023-04-29T09:34:50.820Z,101845.53
2023-04-29T09:37:27.849Z,101845.16
2023-04-29T09:39:55.594Z,101844.97
2023-04-29T09:42:23.170Z,101840.47
2023-04-29T09:44:52.329Z,101849.38
2023-04-29T09:47:32.426Z,101837.53
2023-04-29T09:50:13.992Z,101849.91
2023-04-29T09:52:44.587Z,101846.88
2023-04-29T09:55:15.327Z,101849.09
2023-04-29T09:57:45.697Z,101859.06
2023-04-29T10:00:15.197Z,101846.31
2023-04-29T10:02:46.730Z,101854.25
2023-04-29T10:05:18.863Z,101847.94
2023-04-29T10:07:47.723Z,101853.94
2023-04-29T10:10:17.358Z,101857.28
2023-04-29T10:12:46.866Z,101863.28
2023-04-29T10:15:38.887Z,101864.56
2023-04-29T10:18:20.556Z,101860.72
2023-04-29T10:20:48.999Z,101879.34
2023-04-29T10:23:19.846Z,101868.00
2023-04-29T10:25:52.823Z,101873.41
2023-04-29T10:28:23.501Z,101873.69
2023-04-29T10:30:54.122Z,101873.25
2023-04-29T10:33:23.334Z,101869.22
2023-04-29T10:35:53.763Z,101872.94
2023-04-29T10:38:41.706Z,101873.94
2023-04-29T10:41:23.194Z,101873.06
2023-04-29T10:43:52.944Z,101879.25
2023-04-29T10:46:23.849Z,101878.31
2023-04-29T10:49:03.755Z,101878.16
2023-04-29T10:51:42.638Z,101885.13
2023-04-29T10:54:21.180Z,101881.69
2023-04-29T10:56:54.424Z,101873.00
2023-04-29T10:59:43.164Z,101885.34
2023-04-29T11:02:11.170Z,101879.22
2023-04-29T11:05:09.363Z,101883.38
2023-04-29T11:07:37.048Z,101885.72
2023-04-29T11:10:05.281Z,101886.31
2023-04-29T11:12:32.976Z,101891.53
2023-04-29T11:15:04.692Z,101892.50
2023-04-29T11:17:38.311Z,101887.47
2023-04-29T11:20:14.176Z,101895.88
2023-04-29T11:22:51.056Z,101889.13
2023-04-29T11:25:18.781Z,101888.59
2023-04-29T11:27:49.185Z,101888.88
2023-04-29T11:30:18.504Z,101888.16
2023-04-29T11:32:46.498Z,101889.09
2023-04-29T11:35:19.799Z,101888.25
2023-04-29T11:37:47.906Z,101892.84
2023-04-29T11:40:16.800Z,101894.72
2023-04-29T11:42:47.777Z,101888.59
2023-04-29T11:45:18.978Z,101894.72
2023-04-29T11:47:49.053Z,101888.41
2023-04-29T11:50:20.150Z,101888.13
2023-04-29T11:52:49.593Z,101893.19
2023-04-29T11:55:18.888Z,101896.31
2023-04-29T11:57:51.395Z,101899.34
2023-04-29T12:00:19.518Z,101891.78
2023-04-29T12:02:48.374Z,101894.00
2023-04-29T12:05:17.757Z,101895.31
2023-04-29T12:07:45.791Z,101903.09
2023-04-29T12:10:13.706Z,101894.97
2023-04-29T12:12:44.196Z,101900.00
2023-04-29T12:15:13.364Z,101890.09
2023-04-29T12:17:43.201Z,101898.69
2023-04-29T12:20:12.758Z,101892.44
2023-04-29T12:22:43.807Z,101894.19
2023-04-29T12:25:12.266Z,101894.34
2023-04-29T12:27:44.366Z,101898.59
2023-04-29T12:30:12.808Z,101902.66
2023-04-29T12:32:40.980Z,101897.72
2023-04-29T12:35:19.334Z,101901.72
2023-04-29T12:37:51.366Z,101897.25
2023-04-29T12:40:20.772Z,101899.94
2023-04-29T12:42:48.847Z,101898.22
2023-04-29T12:45:29.222Z,101896.47
2023-04-29T12:47:58.523Z,101904.47
2023-04-29T12:50:33.986Z,101908.81
2023-04-29T12:53:06.702Z,101911.31
2023-04-29T12:55:38.774Z,101905.69
2023-04-29T12:58:07.460Z,101908.94
2023-04-29T13:00:37.377Z,101908.53
2023-04-29T13:03:05.520Z,101907.34
2023-04-29T13:05:33.725Z,101915.09
2023-04-29T13:08:02.335Z,101915.69
2023-04-29T13:10:30.341Z,101911.94
2023-04-29T13:12:57.986Z,101916.34
2023-04-29T13:15:26.939Z,101916.44
2023-04-29T13:17:55.719Z,101919.25
2023-04-29T13:20:23.387Z,101920.13
2023-04-29T13:22:51.020Z,101910.22
2023-04-29T13:25:18.719Z,101918.94
2023-04-29T13:27:46.491Z,101919.63
2023-04-29T13:30:14.132Z,101909.78
2023-04-29T13:32:46.494Z,101909.72
2023-04-29T13:35:21.568Z,101921.88
2023-04-29T13:37:49.513Z,101919.00
2023-04-29T13:40:20.965Z,101914.41
2023-04-29T13:42:50.766Z,101910.69
2023-04-29T13:45:29.122Z,101913.28
2023-04-29T13:48:09.514Z,101905.47
2023-04-29T14:01:17.102Z,101919.81
2023-04-29T14:03:36.753Z,101917.25
2023-04-29T14:06:04.887Z,101920.19
2023-04-29T14:08:35.981Z,101919.31
2023-04-29T14:11:03.772Z,101926.41
2023-04-29T14:13:31.595Z,101925.53
2023-04-29T14:15:59.867Z,101922.94
2023-04-29T14:18:27.609Z,101930.97
2023-04-29T14:20:55.253Z,101925.53
2023-04-29T14:23:24.038Z,101927.91
2023-04-29T14:25:51.881Z,101933.84
2023-04-29T14:28:20.300Z,101932.81
2023-04-29T14:30:47.870Z,101935.34
2023-04-29T14:33:15.597Z,101930.97
2023-04-29T14:35:43.384Z,101933.81
2023-04-29T14:38:10.985Z,101933.22
2023-04-29T14:40:39.193Z,101941.00
2023-04-29T14:43:06.958Z,101941.31
2023-04-29T14:45:37.948Z,101941.59
2023-04-29T14:48:05.732Z,101934.94
2023-04-29T14:50:33.651Z,101942.25
2023-04-29T14:53:01.580Z,101945.69
2023-04-29T14:55:30.827Z,101942.91
2023-04-29T14:57:58.999Z,101933.03
2023-04-29T15:00:26.785Z,101935.66
2023-04-29T15:02:57.075Z,101934.31
2023-04-29T15:05:25.063Z,101940.06
2023-04-29T15:07:52.913Z,101929.28
2023-04-29T15:10:20.719Z,101933.03
2023-04-29T15:12:48.455Z,101932.50
2023-04-29T15:15:16.616Z,101936.44
2023-04-29T15:17:44.801Z,101940.44
2023-04-29T15:20:13.335Z,101943.78
2023-04-29T15:22:41.097Z,101940.00
2023-04-29T15:25:11.781Z,101940.69
2023-04-29T15:27:39.417Z,101943.88
2023-04-29T15:30:08.853Z,101944.41
2023-04-29T15:32:36.667Z,101949.41
2023-04-29T15:35:06.664Z,101947.13
2023-04-29T15:37:36.557Z,101943.72
2023-04-29T15:40:05.122Z,101941.13
2023-04-29T15:42:32.737Z,101945.56
2023-04-29T15:45:02.404Z,101953.69
2023-04-29T15:47:29.987Z,101954.59
2023-04-29T15:49:57.596Z,101955.59
2023-04-29T15:52:26.431Z,101946.00
2023-04-29T15:54:54.178Z,101954.00
2023-04-29T15:57:21.955Z,101949.75
2023-04-29T15:59:49.675Z,101947.38
2023-04-29T16:02:17.405Z,101950.38
2023-04-29T16:04:44.953Z,101956.78
2023-04-29T16:07:13.810Z,101957.75
2023-04-29T16:09:42.390Z,101958.75
2023-04-29T16:12:12.382Z,101959.81
2023-04-29T16:14:40.214Z,101960.88
2023-04-29T16:17:08.076Z,101961.16
2023-04-29T16:19:37.042Z,101964.16
2023-04-29T16:22:05.434Z,101968.91
2023-04-29T16:24:33.001Z,101969.22
2023-04-29T16:27:01.519Z,101964.13
2023-04-29T16:29:30.542Z,101966.91
2023-04-29T16:31:58.147Z,101960.97
2023-04-29T16:34:25.709Z,101963.94
2023-04-29T16:36:53.498Z,101961.50
2023-04-29T16:39:21.193Z,101959.91
2023-04-29T16:41:48.856Z,101970.53
2023-04-29T16:44:17.646Z,101964.47
2023-04-29T16:46:45.444Z,101973.44
2023-04-29T16:49:17.729Z,101969.97
2023-04-29T16:51:45.452Z,101964.78
2023-04-29T16:54:13.110Z,101975.47
2023-04-29T16:56:40.710Z,101975.53
2023-04-29T16:59:08.483Z,101971.19
2023-04-29T17:01:36.202Z,101975.66
2023-04-29T17:04:05.384Z,101966.94
2023-04-29T17:06:34.748Z,101970.53
2023-04-29T17:09:03.299Z,101968.03
2023-04-29T17:11:32.276Z,101958.38
2023-04-29T17:13:59.845Z,101968.16
2023-04-29T17:16:27.494Z,101968.22
2023-04-29T17:18:55.156Z,101965.72
2023-04-29T17:21:26.094Z,101971.97
2023-04-29T17:23:53.681Z,101972.09
2023-04-29T17:26:21.589Z,101973.03
2023-04-29T17:28:49.254Z,101973.09
2023-04-29T17:31:17.165Z,101972.28
2023-04-29T17:33:55.303Z,101968.00
2023-04-29T17:36:23.015Z,101973.41
2023-04-29T17:38:50.575Z,101976.94
2023-04-29T17:41:19.561Z,101977.06
2023-04-29T17:43:47.181Z,101978.06
2023-04-29T17:46:15.099Z,101976.41
2023-04-29T17:48:42.922Z,101978.31
2023-04-29T17:51:10.516Z,101971.44
2023-04-29T17:53:38.179Z,101972.44
2023-04-29T17:56:06.014Z,101976.97
2023-04-29T17:58:33.640Z,101975.34
2023-04-29T18:01:05.930Z,101979.91
2023-04-29T18:03:33.725Z,101978.25
2023-04-29T18:06:01.669Z,101983.59
2023-04-29T18:08:29.490Z,101985.41
2023-04-29T18:10:57.201Z,101981.06
2023-04-29T18:13:27.013Z,101993.50
2023-04-29T18:15:55.547Z,101989.25
2023-04-29T18:18:23.782Z,101986.69
2023-04-29T18:20:51.962Z,101994.75
2023-04-29T18:23:25.561Z,101995.72
2023-04-29T18:25:53.177Z,101990.53
2023-04-29T18:28:25.118Z,101990.63
2023-04-29T18:30:53.401Z,101996.84
2023-04-29T18:33:21.424Z,102003.09
2023-04-29T18:35:49.145Z,102000.53
2023-04-29T18:38:17.482Z,102004.13
2023-04-29T18:40:45.399Z,102001.59
2023-04-29T18:43:17.162Z,101997.28
2023-04-29T18:45:48.104Z,102005.38
2023-04-29T18:48:15.951Z,101997.59
2023-04-29T18:50:43.865Z,102006.47
2023-04-29T18:53:13.512Z,102006.63
2023-04-29T18:55:41.077Z,102014.72
2023-04-29T18:58:31.858Z,102007.75
2023-04-29T19:01:02.828Z,102015.94
2023-04-29T19:03:31.578Z,102018.72
2023-04-29T19:06:01.363Z,102024.16
2023-04-29T19:08:28.980Z,102026.97
2023-04-29T19:10:57.502Z,102027.03
2023-04-29T19:13:27.757Z,102029.78
2023-04-29T19:15:55.482Z,102028.22
2023-04-29T19:18:23.819Z,102025.75
2023-04-29T19:20:53.555Z,102041.81
2023-04-29T19:23:22.060Z,102043.72
2023-04-29T19:25:49.677Z,102045.75
2023-04-29T19:28:17.401Z,102047.66
2023-04-29T19:30:47.125Z,102055.78
2023-04-29T19:33:14.951Z,102062.16
2023-04-29T19:35:42.745Z,102064.94
2023-04-29T19:38:11.039Z,102060.69
2023-04-29T19:40:38.666Z,102069.66
2023-04-29T19:43:06.216Z,102069.84
2023-04-29T19:45:35.395Z,102076.94
2023-04-29T19:48:03.597Z,102074.41
2023-04-29T19:50:31.981Z,102065.75
2023-04-29T19:52:59.564Z,102077.31
2023-04-29T19:55:28.264Z,102084.44
2023-04-29T19:58:07.790Z,102080.19
2023-04-29T20:00:36.323Z,102087.34
2023-04-29T20:03:04.202Z,102092.66
2023-04-29T20:05:31.859Z,102088.34
2023-04-29T20:08:00.621Z,102081.38
2023-04-29T20:10:30.117Z,102084.94
2023-04-29T20:12:57.838Z,102087.66
2023-04-29T20:15:25.821Z,102094.75
2023-04-29T20:17:53.407Z,102100.09
2023-04-29T20:20:21.026Z,102102.75
2023-04-29T20:22:49.001Z,102101.09
2023-04-29T20:25:16.845Z,102098.53
2023-04-29T20:27:44.433Z,102102.09
2023-04-29T20:30:12.754Z,102111.78
2023-04-29T20:32:40.716Z,102111.84
2023-04-29T20:35:08.524Z,102107.53
2023-04-29T20:37:36.464Z,102111.09
2023-04-29T20:40:06.982Z,102114.66
2023-04-29T20:42:34.561Z,102117.34
2023-04-29T20:45:02.354Z,102127.97
2023-04-29T20:47:30.077Z,102133.31
2023-04-29T20:49:57.838Z,102126.34
2023-04-29T20:52:27.577Z,102134.28
2023-04-29T20:54:55.238Z,102137.84
2023-04-29T20:57:23.502Z,102144.03
2023-04-29T20:59:51.823Z,102141.47
2023-04-29T21:02:19.954Z,102149.38
2023-04-29T21:04:47.875Z,102151.16
2023-04-29T21:07:15.922Z,102147.66
2023-04-29T21:09:43.663Z,102151.22
2023-04-29T21:12:11.252Z,102153.88
2023-04-29T21:14:40.813Z,102149.53
2023-04-29T21:17:09.691Z,102151.28
2023-04-29T21:19:37.728Z,102153.06
2023-04-29T21:22:05.570Z,102154.84
2023-04-29T21:24:33.262Z,102153.09
2023-04-29T21:27:00.828Z,102154.88
2023-04-29T21:29:28.639Z,102150.53
2023-04-29T21:31:56.282Z,102159.28
2023-04-29T21:34:23.908Z,102164.53
2023-04-29T21:36:52.238Z,102171.56
2023-04-29T21:39:20.059Z,102174.19
2023-04-29T21:41:47.925Z,102170.72
2023-04-29T21:44:15.670Z,102169.84
2023-04-29T21:46:44.247Z,102174.25
2023-04-29T21:49:13.189Z,102167.25
2023-04-29T21:51:40.978Z,102170.75
2023-04-29T21:54:08.650Z,102169.88
2023-04-29T21:56:36.688Z,102175.16
2023-04-29T21:59:04.457Z,102171.63
2023-04-29T22:01:59.836Z,102183.00
2023-04-29T22:04:28.252Z,102174.28
2023-04-29T22:06:57.393Z,102177.78
2023-04-29T22:09:25.314Z,102182.16
2023-04-29T22:11:53.001Z,102186.53
2023-04-29T22:14:20.477Z,102189.16
2023-04-29T22:16:48.021Z,102192.66
2023-04-29T22:19:15.718Z,102192.69
2023-04-29T22:21:43.295Z,102189.16
2023-04-29T22:24:10.791Z,102198.81
2023-04-29T22:26:38.497Z,102197.03
2023-04-29T22:29:06.473Z,102192.69
2023-04-29T22:31:34.023Z,102191.78
2023-04-29T22:34:01.686Z,102188.28
2023-04-29T22:36:29.229Z,102189.16
2023-04-29T22:38:56.704Z,102192.66
2023-04-29T22:41:24.420Z,102195.28
2023-04-29T22:43:57.070Z,102192.66
2023-04-29T22:46:25.732Z,102194.41
2023-04-29T22:48:53.240Z,102202.28
2023-04-29T22:51:20.822Z,102204.91
2023-04-29T22:53:48.404Z,102204.91
2023-04-29T22:56:15.871Z,102202.28
2023-04-29T22:58:43.365Z,102203.16
2023-04-29T23:01:12.106Z,102203.19
2023-04-29T23:03:39.810Z,102211.03
2023-04-29T23:06:07.767Z,102209.28
2023-04-29T23:08:35.409Z,102212.78
2023-04-29T23:11:02.988Z,102213.66
2023-04-29T23:13:32.064Z,102211.91
2023-04-29T23:16:00.402Z,102211.91
2023-04-29T23:18:27.911Z,102210.13
2023-04-29T23:20:56.936Z,102213.66
2023-04-29T23:23:24.731Z,102216.28
2023-04-29T23:25:52.194Z,102227.63
2023-04-29T23:28:19.792Z,102226.75
2023-04-29T23:30:48.334Z,102226.75
2023-04-29T23:33:15.893Z,102221.53
2023-04-29T23:35:53.577Z,102220.63
2023-04-29T23:38:21.361Z,102226.72
2023-04-29T23:40:49.930Z,102228.50
2023-04-29T23:43:18.217Z,102225.88
2023-04-29T23:45:46.277Z,102231.06
2023-04-29T23:48:16.080Z,102226.69
2023-04-29T23:50:43.757Z,102227.59
2023-04-29T23:53:11.382Z,102229.31
2023-04-29T23:55:38.909Z,102229.31
2023-04-29T23:58:06.499Z,102234.53
